sensor_id;sensor_type;location;lat;lon;timestamp;temperature;humidity
27797;DHT22;15177;50.844;4.412;2023-06-22T00:00:58;23.10;99.90
27797;DHT22;15177;50.844;4.412;2023-06-22T00:03:24;23.20;99.90
27797;DHT22;15177;50.844;4.412;2023-06-22T00:05:52;23.20;99.90
27797;DHT22;15177;50.844;4.412;2023-06-22T00:08:18;23.20;99.90
27797;DHT22;15177;50.844;4.412;2023-06-22T00:10:44;23.30;99.90
27797;DHT22;15177;50.844;4.412;2023-06-22T00:13:11;23.30;99.90
27797;DHT22;15177;50.844;4.412;2023-06-22T00:15:38;23.20;99.90
27797;DHT22;15177;50.844;4.412;2023-06-22T00:18:06;23.20;99.90
27797;DHT22;15177;50.844;4.412;2023-06-22T00:20:32;23.10;99.90
27797;DHT22;15177;50.844;4.412;2023-06-22T00:22:59;23.10;99.90
27797;DHT22;15177;50.844;4.412;2023-06-22T00:25:26;23.00;99.90
27797;DHT22;15177;50.844;4.412;2023-06-22T00:27:51;23.00;99.90
27797;DHT22;15177;50.844;4.412;2023-06-22T00:30:18;23.10;99.90
27797;DHT22;15177;50.844;4.412;2023-06-22T00:32:44;23.00;99.90
27797;DHT22;15177;50.844;4.412;2023-06-22T00:35:11;22.90;99.90
27797;DHT22;15177;50.844;4.412;2023-06-22T00:37:38;22.90;99.90
27797;DHT22;15177;50.844;4.412;2023-06-22T00:40:08;22.90;99.90
27797;DHT22;15177;50.844;4.412;2023-06-22T00:42:38;22.90;99.90
27797;DHT22;15177;50.844;4.412;2023-06-22T00:45:06;22.80;99.90
27797;DHT22;15177;50.844;4.412;2023-06-22T00:47:32;22.80;99.90
27797;DHT22;15177;50.844;4.412;2023-06-22T00:49:59;22.90;99.90
27797;DHT22;15177;50.844;4.412;2023-06-22T00:52:26;23.00;99.90
27797;DHT22;15177;50.844;4.412;2023-06-22T00:54:56;23.10;99.90
27797;DHT22;15177;50.844;4.412;2023-06-22T00:57:23;23.00;99.90
27797;DHT22;15177;50.844;4.412;2023-06-22T00:59:51;22.90;99.90
27797;DHT22;15177;50.844;4.412;2023-06-22T01:02:16;22.90;99.90
27797;DHT22;15177;50.844;4.412;2023-06-22T01:04:42;22.90;99.90
27797;DHT22;15177;50.844;4.412;2023-06-22T01:12:23;22.80;99.90
27797;DHT22;15177;50.844;4.412;2023-06-22T01:15:02;22.80;99.90
27797;DHT22;15177;50.844;4.412;2023-06-22T01:17:31;22.90;99.90
27797;DHT22;15177;50.844;4.412;2023-06-22T01:19:59;22.90;99.90
27797;DHT22;15177;50.844;4.412;2023-06-22T01:22:28;22.80;99.90
27797;DHT22;15177;50.844;4.412;2023-06-22T01:25:10;22.80;99.90
27797;DHT22;15177;50.844;4.412;2023-06-22T01:27:56;22.90;99.90
27797;DHT22;15177;50.844;4.412;2023-06-22T01:30:28;22.80;99.90
27797;DHT22;15177;50.844;4.412;2023-06-22T01:32:58;22.70;99.90
27797;DHT22;15177;50.844;4.412;2023-06-22T01:35:25;22.80;99.90
27797;DHT22;15177;50.844;4.412;2023-06-22T01:37:53;22.80;99.90
27797;DHT22;15177;50.844;4.412;2023-06-22T01:40:21;22.90;99.90
27797;DHT22;15177;50.844;4.412;2023-06-22T01:42:49;22.80;99.90
27797;DHT22;15177;50.844;4.412;2023-06-22T01:45:16;22.80;99.90
27797;DHT22;15177;50.844;4.412;2023-06-22T01:47:42;22.70;99.90
27797;DHT22;15177;50.844;4.412;2023-06-22T01:50:09;22.80;99.90
27797;DHT22;15177;50.844;4.412;2023-06-22T01:52:34;22.70;99.90
27797;DHT22;15177;50.844;4.412;2023-06-22T01:55:01;22.70;99.90
27797;DHT22;15177;50.844;4.412;2023-06-22T01:57:27;22.70;99.90
27797;DHT22;15177;50.844;4.412;2023-06-22T02:00:03;22.60;99.90
27797;DHT22;15177;50.844;4.412;2023-06-22T02:02:39;22.70;99.90
27797;DHT22;15177;50.844;4.412;2023-06-22T02:05:08;22.70;99.90
27797;DHT22;15177;50.844;4.412;2023-06-22T02:07:44;22.70;99.90
27797;DHT22;15177;50.844;4.412;2023-06-22T02:10:12;22.70;99.90
27797;DHT22;15177;50.844;4.412;2023-06-22T02:12:40;22.70;99.90
27797;DHT22;15177;50.844;4.412;2023-06-22T02:15:08;22.60;99.90
27797;DHT22;15177;50.844;4.412;2023-06-22T02:17:34;22.50;99.90
27797;DHT22;15177;50.844;4.412;2023-06-22T02:20:04;22.30;99.90
27797;DHT22;15177;50.844;4.412;2023-06-22T02:22:35;22.30;99.90
27797;DHT22;15177;50.844;4.412;2023-06-22T02:25:01;22.20;99.90
27797;DHT22;15177;50.844;4.412;2023-06-22T02:27:26;22.20;99.90
27797;DHT22;15177;50.844;4.412;2023-06-22T02:29:52;22.30;99.90
27797;DHT22;15177;50.844;4.412;2023-06-22T02:32:17;22.10;99.90
27797;DHT22;15177;50.844;4.412;2023-06-22T02:34:43;22.00;99.90
27797;DHT22;15177;50.844;4.412;2023-06-22T02:37:14;22.00;99.90
27797;DHT22;15177;50.844;4.412;2023-06-22T02:39:42;22.00;99.90
27797;DHT22;15177;50.844;4.412;2023-06-22T02:42:08;22.00;99.90
27797;DHT22;15177;50.844;4.412;2023-06-22T02:44:36;21.90;99.90
27797;DHT22;15177;50.844;4.412;2023-06-22T02:47:02;21.90;99.90
27797;DHT22;15177;50.844;4.412;2023-06-22T02:49:30;21.60;99.90
27797;DHT22;15177;50.844;4.412;2023-06-22T02:51:57;21.60;99.90
27797;DHT22;15177;50.844;4.412;2023-06-22T02:54:23;21.70;99.90
27797;DHT22;15177;50.844;4.412;2023-06-22T02:56:49;21.80;99.90
27797;DHT22;15177;50.844;4.412;2023-06-22T02:59:16;21.70;99.90
27797;DHT22;15177;50.844;4.412;2023-06-22T03:01:41;21.60;99.90
27797;DHT22;15177;50.844;4.412;2023-06-22T03:04:08;21.60;99.90
27797;DHT22;15177;50.844;4.412;2023-06-22T03:06:34;21.60;99.90
27797;DHT22;15177;50.844;4.412;2023-06-22T03:09:02;21.60;99.90
27797;DHT22;15177;50.844;4.412;2023-06-22T03:11:32;21.60;99.90
27797;DHT22;15177;50.844;4.412;2023-06-22T03:13:59;21.50;99.90
27797;DHT22;15177;50.844;4.412;2023-06-22T03:16:25;21.50;99.90
27797;DHT22;15177;50.844;4.412;2023-06-22T03:18:52;21.50;99.90
27797;DHT22;15177;50.844;4.412;2023-06-22T03:21:22;21.50;99.90
27797;DHT22;15177;50.844;4.412;2023-06-22T03:23:50;21.50;99.90
27797;DHT22;15177;50.844;4.412;2023-06-22T03:26:20;21.50;99.90
27797;DHT22;15177;50.844;4.412;2023-06-22T03:28:46;21.50;99.90
27797;DHT22;15177;50.844;4.412;2023-06-22T03:31:12;21.50;99.90
27797;DHT22;15177;50.844;4.412;2023-06-22T03:33:37;21.50;99.90
27797;DHT22;15177;50.844;4.412;2023-06-22T03:36:03;21.50;99.90
27797;DHT22;15177;50.844;4.412;2023-06-22T03:38:30;21.50;99.90
27797;DHT22;15177;50.844;4.412;2023-06-22T03:40:56;21.50;99.90
27797;DHT22;15177;50.844;4.412;2023-06-22T03:43:26;21.50;99.90
27797;DHT22;15177;50.844;4.412;2023-06-22T03:45:51;21.50;99.90
27797;DHT22;15177;50.844;4.412;2023-06-22T03:48:17;21.50;99.90
27797;DHT22;15177;50.844;4.412;2023-06-22T03:50:43;21.60;99.90
27797;DHT22;15177;50.844;4.412;2023-06-22T03:53:11;21.60;99.90
27797;DHT22;15177;50.844;4.412;2023-06-22T03:55:47;21.60;99.90
27797;DHT22;15177;50.844;4.412;2023-06-22T03:58:13;21.60;99.90
27797;DHT22;15177;50.844;4.412;2023-06-22T04:00:39;21.60;99.90
27797;DHT22;15177;50.844;4.412;2023-06-22T04:03:07;21.60;99.90
27797;DHT22;15177;50.844;4.412;2023-06-22T04:05:33;21.60;99.90
27797;DHT22;15177;50.844;4.412;2023-06-22T04:07:58;21.50;99.90
27797;DHT22;15177;50.844;4.412;2023-06-22T04:10:24;21.50;99.90
27797;DHT22;15177;50.844;4.412;2023-06-22T04:12:50;21.30;99.90
27797;DHT22;15177;50.844;4.412;2023-06-22T04:15:15;21.30;99.90
27797;DHT22;15177;50.844;4.412;2023-06-22T04:17:41;21.50;99.90
27797;DHT22;15177;50.844;4.412;2023-06-22T04:20:07;21.50;99.90
27797;DHT22;15177;50.844;4.412;2023-06-22T04:22:33;21.50;99.90
27797;DHT22;15177;50.844;4.412;2023-06-22T04:24:59;21.50;99.90
27797;DHT22;15177;50.844;4.412;2023-06-22T04:27:24;21.50;99.90
27797;DHT22;15177;50.844;4.412;2023-06-22T04:29:50;21.40;99.90
27797;DHT22;15177;50.844;4.412;2023-06-22T04:32:17;21.20;99.90
27797;DHT22;15177;50.844;4.412;2023-06-22T04:34:43;21.30;99.90
27797;DHT22;15177;50.844;4.412;2023-06-22T04:37:12;21.30;99.90
27797;DHT22;15177;50.844;4.412;2023-06-22T04:39:42;21.40;99.90
27797;DHT22;15177;50.844;4.412;2023-06-22T04:42:07;21.40;99.90
27797;DHT22;15177;50.844;4.412;2023-06-22T04:44:33;21.00;99.90
27797;DHT22;15177;50.844;4.412;2023-06-22T04:47:01;21.00;99.90
27797;DHT22;15177;50.844;4.412;2023-06-22T04:49:29;21.10;99.90
27797;DHT22;15177;50.844;4.412;2023-06-22T04:51:59;20.90;99.90
27797;DHT22;15177;50.844;4.412;2023-06-22T04:54:25;20.80;99.90
27797;DHT22;15177;50.844;4.412;2023-06-22T04:56:51;20.90;99.90
27797;DHT22;15177;50.844;4.412;2023-06-22T04:59:24;21.10;99.90
27797;DHT22;15177;50.844;4.412;2023-06-22T05:01:55;21.40;99.90
27797;DHT22;15177;50.844;4.412;2023-06-22T05:04:22;21.60;99.90
27797;DHT22;15177;50.844;4.412;2023-06-22T05:06:52;21.70;99.90
27797;DHT22;15177;50.844;4.412;2023-06-22T05:09:20;21.80;99.90
27797;DHT22;15177;50.844;4.412;2023-06-22T05:11:46;21.90;99.90
27797;DHT22;15177;50.844;4.412;2023-06-22T05:14:12;22.00;99.90
27797;DHT22;15177;50.844;4.412;2023-06-22T05:16:40;21.90;99.90
27797;DHT22;15177;50.844;4.412;2023-06-22T05:19:06;22.00;99.90
27797;DHT22;15177;50.844;4.412;2023-06-22T05:21:38;22.20;99.90
27797;DHT22;15177;50.844;4.412;2023-06-22T05:24:04;22.00;99.90
27797;DHT22;15177;50.844;4.412;2023-06-22T05:26:32;22.10;99.90
27797;DHT22;15177;50.844;4.412;2023-06-22T05:29:00;22.20;99.90
27797;DHT22;15177;50.844;4.412;2023-06-22T05:31:27;22.20;99.90
27797;DHT22;15177;50.844;4.412;2023-06-22T05:33:55;22.20;99.90
27797;DHT22;15177;50.844;4.412;2023-06-22T05:36:22;22.20;99.90
27797;DHT22;15177;50.844;4.412;2023-06-22T05:38:52;22.00;99.90
27797;DHT22;15177;50.844;4.412;2023-06-22T05:41:18;22.00;99.90
27797;DHT22;15177;50.844;4.412;2023-06-22T05:43:44;22.00;99.90
27797;DHT22;15177;50.844;4.412;2023-06-22T05:46:10;21.80;99.90
27797;DHT22;15177;50.844;4.412;2023-06-22T05:48:35;21.60;99.90
27797;DHT22;15177;50.844;4.412;2023-06-22T05:51:01;21.50;99.90
27797;DHT22;15177;50.844;4.412;2023-06-22T05:53:27;21.40;99.90
27797;DHT22;15177;50.844;4.412;2023-06-22T05:55:55;21.30;99.90
27797;DHT22;15177;50.844;4.412;2023-06-22T05:58:20;21.10;99.90
27797;DHT22;15177;50.844;4.412;2023-06-22T06:00:46;21.00;99.90
27797;DHT22;15177;50.844;4.412;2023-06-22T06:03:13;21.00;99.90
27797;DHT22;15177;50.844;4.412;2023-06-22T06:05:42;21.00;99.90
27797;DHT22;15177;50.844;4.412;2023-06-22T06:08:08;21.10;99.90
27797;DHT22;15177;50.844;4.412;2023-06-22T06:10:37;21.20;99.90
27797;DHT22;15177;50.844;4.412;2023-06-22T06:13:04;21.20;99.90
27797;DHT22;15177;50.844;4.412;2023-06-22T06:15:31;21.20;99.90
27797;DHT22;15177;50.844;4.412;2023-06-22T06:17:59;21.20;99.90
27797;DHT22;15177;50.844;4.412;2023-06-22T06:20:26;21.30;99.90
27797;DHT22;15177;50.844;4.412;2023-06-22T06:22:53;21.40;99.90
27797;DHT22;15177;50.844;4.412;2023-06-22T06:25:22;21.50;99.90
27797;DHT22;15177;50.844;4.412;2023-06-22T06:27:51;21.60;99.90
27797;DHT22;15177;50.844;4.412;2023-06-22T06:30:18;21.80;99.90
27797;DHT22;15177;50.844;4.412;2023-06-22T06:32:46;21.90;99.90
27797;DHT22;15177;50.844;4.412;2023-06-22T06:35:13;22.00;99.90
27797;DHT22;15177;50.844;4.412;2023-06-22T06:37:41;22.10;99.90
27797;DHT22;15177;50.844;4.412;2023-06-22T06:40:09;22.10;99.90
27797;DHT22;15177;50.844;4.412;2023-06-22T06:42:47;22.20;99.90
27797;DHT22;15177;50.844;4.412;2023-06-22T06:45:19;22.30;99.90
27797;DHT22;15177;50.844;4.412;2023-06-22T06:47:45;22.50;99.90
27797;DHT22;15177;50.844;4.412;2023-06-22T06:50:12;22.30;99.90
27797;DHT22;15177;50.844;4.412;2023-06-22T06:52:38;22.40;99.90
27797;DHT22;15177;50.844;4.412;2023-06-22T06:55:06;22.30;99.90
27797;DHT22;15177;50.844;4.412;2023-06-22T06:57:34;22.30;99.90
27797;DHT22;15177;50.844;4.412;2023-06-22T07:00:01;22.30;99.90
27797;DHT22;15177;50.844;4.412;2023-06-22T07:02:31;22.30;99.90
27797;DHT22;15177;50.844;4.412;2023-06-22T07:04:57;22.30;99.90
27797;DHT22;15177;50.844;4.412;2023-06-22T07:07:23;22.30;99.90
27797;DHT22;15177;50.844;4.412;2023-06-22T07:09:49;22.40;99.90
27797;DHT22;15177;50.844;4.412;2023-06-22T07:12:17;22.30;99.90
27797;DHT22;15177;50.844;4.412;2023-06-22T07:14:42;22.00;99.90
27797;DHT22;15177;50.844;4.412;2023-06-22T07:17:08;22.20;99.90
27797;DHT22;15177;50.844;4.412;2023-06-22T07:19:34;22.10;99.90
27797;DHT22;15177;50.844;4.412;2023-06-22T07:21:59;22.30;99.90
27797;DHT22;15177;50.844;4.412;2023-06-22T07:24:25;22.20;99.90
27797;DHT22;15177;50.844;4.412;2023-06-22T07:26:51;22.40;99.90
27797;DHT22;15177;50.844;4.412;2023-06-22T07:29:17;22.50;99.90
27797;DHT22;15177;50.844;4.412;2023-06-22T07:31:45;22.90;99.90
27797;DHT22;15177;50.844;4.412;2023-06-22T07:34:12;23.20;99.90
27797;DHT22;15177;50.844;4.412;2023-06-22T07:36:39;23.00;99.90
27797;DHT22;15177;50.844;4.412;2023-06-22T07:39:09;22.60;99.90
27797;DHT22;15177;50.844;4.412;2023-06-22T07:41:36;22.70;99.90
27797;DHT22;15177;50.844;4.412;2023-06-22T07:44:04;22.70;99.90
27797;DHT22;15177;50.844;4.412;2023-06-22T07:46:33;22.70;99.90
27797;DHT22;15177;50.844;4.412;2023-06-22T07:48:59;22.70;99.90
27797;DHT22;15177;50.844;4.412;2023-06-22T07:51:29;22.50;99.90
27797;DHT22;15177;50.844;4.412;2023-06-22T07:53:56;22.50;99.90
27797;DHT22;15177;50.844;4.412;2023-06-22T07:56:30;22.60;99.90
27797;DHT22;15177;50.844;4.412;2023-06-22T07:58:55;22.60;99.90
27797;DHT22;15177;50.844;4.412;2023-06-22T08:01:23;22.80;99.90
27797;DHT22;15177;50.844;4.412;2023-06-22T08:03:52;22.80;99.90
27797;DHT22;15177;50.844;4.412;2023-06-22T08:06:18;22.70;99.90
27797;DHT22;15177;50.844;4.412;2023-06-22T08:08:43;22.60;99.90
27797;DHT22;15177;50.844;4.412;2023-06-22T08:11:13;22.70;99.90
27797;DHT22;15177;50.844;4.412;2023-06-22T08:13:39;22.60;99.90
27797;DHT22;15177;50.844;4.412;2023-06-22T08:16:04;22.60;99.90
27797;DHT22;15177;50.844;4.412;2023-06-22T08:18:33;22.60;99.90
27797;DHT22;15177;50.844;4.412;2023-06-22T08:20:59;22.60;99.90
27797;DHT22;15177;50.844;4.412;2023-06-22T08:23:25;22.70;99.90
27797;DHT22;15177;50.844;4.412;2023-06-22T08:25:50;22.70;99.90
27797;DHT22;15177;50.844;4.412;2023-06-22T08:28:16;22.60;99.90
27797;DHT22;15177;50.844;4.412;2023-06-22T08:30:42;22.50;99.90
27797;DHT22;15177;50.844;4.412;2023-06-22T08:33:08;22.30;99.90
27797;DHT22;15177;50.844;4.412;2023-06-22T08:35:33;22.30;99.90
27797;DHT22;15177;50.844;4.412;2023-06-22T08:37:59;22.20;99.90
27797;DHT22;15177;50.844;4.412;2023-06-22T08:40:26;22.20;99.90
27797;DHT22;15177;50.844;4.412;2023-06-22T08:42:52;22.30;99.90
27797;DHT22;15177;50.844;4.412;2023-06-22T08:45:18;22.30;99.90
27797;DHT22;15177;50.844;4.412;2023-06-22T08:47:45;22.30;99.90
27797;DHT22;15177;50.844;4.412;2023-06-22T08:50:12;22.30;99.90
27797;DHT22;15177;50.844;4.412;2023-06-22T08:52:40;22.20;99.90
27797;DHT22;15177;50.844;4.412;2023-06-22T08:55:11;22.30;99.90
27797;DHT22;15177;50.844;4.412;2023-06-22T08:57:38;22.30;99.90
27797;DHT22;15177;50.844;4.412;2023-06-22T09:00:07;22.30;99.90
27797;DHT22;15177;50.844;4.412;2023-06-22T09:02:43;22.40;99.90
27797;DHT22;15177;50.844;4.412;2023-06-22T09:05:09;22.40;99.90
27797;DHT22;15177;50.844;4.412;2023-06-22T09:07:35;22.50;99.90
27797;DHT22;15177;50.844;4.412;2023-06-22T09:10:02;22.40;99.90
27797;DHT22;15177;50.844;4.412;2023-06-22T09:12:30;22.40;99.90
27797;DHT22;15177;50.844;4.412;2023-06-22T09:14:56;22.50;99.90
27797;DHT22;15177;50.844;4.412;2023-06-22T09:17:22;22.50;99.90
27797;DHT22;15177;50.844;4.412;2023-06-22T09:19:48;22.60;99.90
27797;DHT22;15177;50.844;4.412;2023-06-22T09:22:14;22.60;99.90
27797;DHT22;15177;50.844;4.412;2023-06-22T09:24:43;22.70;99.90
27797;DHT22;15177;50.844;4.412;2023-06-22T09:27:08;22.70;99.90
27797;DHT22;15177;50.844;4.412;2023-06-22T09:29:35;22.60;99.90
27797;DHT22;15177;50.844;4.412;2023-06-22T09:32:02;22.50;99.90
27797;DHT22;15177;50.844;4.412;2023-06-22T09:34:30;22.50;99.90
27797;DHT22;15177;50.844;4.412;2023-06-22T09:36:57;22.30;99.90
27797;DHT22;15177;50.844;4.412;2023-06-22T09:39:24;22.30;99.90
27797;DHT22;15177;50.844;4.412;2023-06-22T09:41:50;21.90;99.90
27797;DHT22;15177;50.844;4.412;2023-06-22T09:44:19;21.40;99.90
27797;DHT22;15177;50.844;4.412;2023-06-22T09:46:46;21.10;99.90
27797;DHT22;15177;50.844;4.412;2023-06-22T09:49:12;21.00;99.90
27797;DHT22;15177;50.844;4.412;2023-06-22T09:51:38;20.60;99.90
27797;DHT22;15177;50.844;4.412;2023-06-22T09:54:04;20.30;99.90
27797;DHT22;15177;50.844;4.412;2023-06-22T09:56:30;19.70;99.90
27797;DHT22;15177;50.844;4.412;2023-06-22T09:58:57;19.70;99.90
27797;DHT22;15177;50.844;4.412;2023-06-22T10:01:23;19.90;99.90
27797;DHT22;15177;50.844;4.412;2023-06-22T10:03:51;19.90;99.90
27797;DHT22;15177;50.844;4.412;2023-06-22T10:06:19;20.00;99.90
27797;DHT22;15177;50.844;4.412;2023-06-22T10:08:50;19.80;99.90
27797;DHT22;15177;50.844;4.412;2023-06-22T10:11:16;19.60;99.90
27797;DHT22;15177;50.844;4.412;2023-06-22T10:13:42;19.50;99.90
27797;DHT22;15177;50.844;4.412;2023-06-22T10:16:09;19.40;99.90
27797;DHT22;15177;50.844;4.412;2023-06-22T10:18:40;19.40;99.90
27797;DHT22;15177;50.844;4.412;2023-06-22T10:21:07;19.30;99.90
27797;DHT22;15177;50.844;4.412;2023-06-22T10:23:34;19.30;99.90
27797;DHT22;15177;50.844;4.412;2023-06-22T10:26:01;19.40;99.90
27797;DHT22;15177;50.844;4.412;2023-06-22T10:28:32;19.30;99.90
27797;DHT22;15177;50.844;4.412;2023-06-22T10:30:59;19.30;99.90
27797;DHT22;15177;50.844;4.412;2023-06-22T10:33:26;19.20;99.90
27797;DHT22;15177;50.844;4.412;2023-06-22T10:35:51;19.20;99.90
27797;DHT22;15177;50.844;4.412;2023-06-22T10:38:17;19.10;99.90
27797;DHT22;15177;50.844;4.412;2023-06-22T10:40:43;19.00;99.90
27797;DHT22;15177;50.844;4.412;2023-06-22T10:43:08;18.90;99.90
27797;DHT22;15177;50.844;4.412;2023-06-22T10:45:35;18.90;99.90
27797;DHT22;15177;50.844;4.412;2023-06-22T10:48:01;18.90;99.90
27797;DHT22;15177;50.844;4.412;2023-06-22T10:50:27;18.90;99.90
27797;DHT22;15177;50.844;4.412;2023-06-22T10:52:55;18.80;99.90
27797;DHT22;15177;50.844;4.412;2023-06-22T10:55:21;18.80;99.90
27797;DHT22;15177;50.844;4.412;2023-06-22T10:57:46;18.80;99.90
27797;DHT22;15177;50.844;4.412;2023-06-22T11:00:14;18.80;99.90
27797;DHT22;15177;50.844;4.412;2023-06-22T11:02:41;18.80;99.90
27797;DHT22;15177;50.844;4.412;2023-06-22T11:05:07;18.90;99.90
27797;DHT22;15177;50.844;4.412;2023-06-22T11:07:33;19.00;99.90
27797;DHT22;15177;50.844;4.412;2023-06-22T11:09:58;19.00;99.90
27797;DHT22;15177;50.844;4.412;2023-06-22T11:12:27;19.00;99.90
27797;DHT22;15177;50.844;4.412;2023-06-22T11:14:52;19.10;99.90
27797;DHT22;15177;50.844;4.412;2023-06-22T11:17:18;19.30;99.90
27797;DHT22;15177;50.844;4.412;2023-06-22T11:19:46;19.20;99.90
27797;DHT22;15177;50.844;4.412;2023-06-22T11:22:12;19.10;99.90
27797;DHT22;15177;50.844;4.412;2023-06-22T11:24:40;19.30;99.90
27797;DHT22;15177;50.844;4.412;2023-06-22T11:27:07;19.30;99.90
27797;DHT22;15177;50.844;4.412;2023-06-22T11:29:32;19.40;99.90
27797;DHT22;15177;50.844;4.412;2023-06-22T11:31:58;19.50;99.90
27797;DHT22;15177;50.844;4.412;2023-06-22T11:34:24;19.50;99.90
27797;DHT22;15177;50.844;4.412;2023-06-22T11:36:51;19.50;99.90
27797;DHT22;15177;50.844;4.412;2023-06-22T11:39:18;19.50;99.90
27797;DHT22;15177;50.844;4.412;2023-06-22T11:41:43;19.60;99.90
27797;DHT22;15177;50.844;4.412;2023-06-22T11:44:10;19.50;99.90
27797;DHT22;15177;50.844;4.412;2023-06-22T11:46:37;19.60;99.90
27797;DHT22;15177;50.844;4.412;2023-06-22T11:49:03;19.70;99.90
27797;DHT22;15177;50.844;4.412;2023-06-22T11:51:28;19.70;99.90
27797;DHT22;15177;50.844;4.412;2023-06-22T11:53:56;19.80;99.90
27797;DHT22;15177;50.844;4.412;2023-06-22T11:56:22;19.80;99.90
27797;DHT22;15177;50.844;4.412;2023-06-22T11:58:48;19.70;99.90
27797;DHT22;15177;50.844;4.412;2023-06-22T12:01:15;19.70;99.90
27797;DHT22;15177;50.844;4.412;2023-06-22T12:03:41;19.60;99.90
27797;DHT22;15177;50.844;4.412;2023-06-22T12:06:09;19.60;99.90
27797;DHT22;15177;50.844;4.412;2023-06-22T12:08:34;19.70;99.90
27797;DHT22;15177;50.844;4.412;2023-06-22T12:11:00;19.80;99.90
27797;DHT22;15177;50.844;4.412;2023-06-22T12:13:26;19.70;99.90
27797;DHT22;15177;50.844;4.412;2023-06-22T12:15:52;19.70;99.90
27797;DHT22;15177;50.844;4.412;2023-06-22T12:18:18;19.60;99.90
27797;DHT22;15177;50.844;4.412;2023-06-22T12:20:46;19.50;99.90
27797;DHT22;15177;50.844;4.412;2023-06-22T12:23:12;19.40;99.90
27797;DHT22;15177;50.844;4.412;2023-06-22T12:25:39;19.40;99.90
27797;DHT22;15177;50.844;4.412;2023-06-22T12:28:04;19.30;99.90
27797;DHT22;15177;50.844;4.412;2023-06-22T12:30:32;19.20;99.90
27797;DHT22;15177;50.844;4.412;2023-06-22T12:33:01;19.20;99.90
27797;DHT22;15177;50.844;4.412;2023-06-22T12:35:27;19.20;99.90
27797;DHT22;15177;50.844;4.412;2023-06-22T12:37:52;19.20;99.90
27797;DHT22;15177;50.844;4.412;2023-06-22T12:40:18;19.20;99.90
27797;DHT22;15177;50.844;4.412;2023-06-22T12:42:45;19.20;99.90
27797;DHT22;15177;50.844;4.412;2023-06-22T12:45:10;19.20;99.90
27797;DHT22;15177;50.844;4.412;2023-06-22T12:47:36;19.30;99.90
27797;DHT22;15177;50.844;4.412;2023-06-22T12:50:02;19.40;99.90
27797;DHT22;15177;50.844;4.412;2023-06-22T12:52:30;19.50;99.90
27797;DHT22;15177;50.844;4.412;2023-06-22T12:54:57;19.60;99.90
27797;DHT22;15177;50.844;4.412;2023-06-22T12:57:22;19.50;99.90
27797;DHT22;15177;50.844;4.412;2023-06-22T12:59:49;19.40;99.90
27797;DHT22;15177;50.844;4.412;2023-06-22T13:02:15;19.40;99.90
27797;DHT22;15177;50.844;4.412;2023-06-22T13:04:41;19.50;99.90
27797;DHT22;15177;50.844;4.412;2023-06-22T13:07:06;19.50;99.90
27797;DHT22;15177;50.844;4.412;2023-06-22T13:09:32;19.50;99.90
27797;DHT22;15177;50.844;4.412;2023-06-22T13:12:00;19.40;99.90
27797;DHT22;15177;50.844;4.412;2023-06-22T13:14:27;19.40;99.90
27797;DHT22;15177;50.844;4.412;2023-06-22T13:16:53;19.30;99.90
27797;DHT22;15177;50.844;4.412;2023-06-22T13:19:19;19.40;99.90
27797;DHT22;15177;50.844;4.412;2023-06-22T13:21:44;19.50;99.90
27797;DHT22;15177;50.844;4.412;2023-06-22T13:24:10;19.50;99.90
27797;DHT22;15177;50.844;4.412;2023-06-22T13:26:36;19.50;99.90
27797;DHT22;15177;50.844;4.412;2023-06-22T13:29:03;19.50;99.90
27797;DHT22;15177;50.844;4.412;2023-06-22T13:31:28;19.50;99.90
27797;DHT22;15177;50.844;4.412;2023-06-22T13:33:54;19.50;99.90
27797;DHT22;15177;50.844;4.412;2023-06-22T13:36:20;19.50;99.90
27797;DHT22;15177;50.844;4.412;2023-06-22T13:38:46;19.40;99.90
27797;DHT22;15177;50.844;4.412;2023-06-22T13:41:12;19.40;99.90
27797;DHT22;15177;50.844;4.412;2023-06-22T13:43:38;19.40;99.90
27797;DHT22;15177;50.844;4.412;2023-06-22T13:46:04;19.40;99.90
27797;DHT22;15177;50.844;4.412;2023-06-22T13:48:29;19.30;99.90
27797;DHT22;15177;50.844;4.412;2023-06-22T13:50:55;19.20;99.90
27797;DHT22;15177;50.844;4.412;2023-06-22T13:53:21;19.20;99.90
27797;DHT22;15177;50.844;4.412;2023-06-22T13:55:47;19.20;99.90
27797;DHT22;15177;50.844;4.412;2023-06-22T13:58:13;19.20;99.90
27797;DHT22;15177;50.844;4.412;2023-06-22T14:00:39;19.10;99.90
27797;DHT22;15177;50.844;4.412;2023-06-22T14:03:04;19.10;99.90
27797;DHT22;15177;50.844;4.412;2023-06-22T14:05:30;19.10;99.90
27797;DHT22;15177;50.844;4.412;2023-06-22T14:07:55;19.10;99.90
27797;DHT22;15177;50.844;4.412;2023-06-22T14:10:21;19.10;99.90
27797;DHT22;15177;50.844;4.412;2023-06-22T14:12:47;19.20;99.90
27797;DHT22;15177;50.844;4.412;2023-06-22T14:15:12;19.10;99.90
27797;DHT22;15177;50.844;4.412;2023-06-22T14:17:38;19.10;99.90
27797;DHT22;15177;50.844;4.412;2023-06-22T14:20:04;19.10;99.90
27797;DHT22;15177;50.844;4.412;2023-06-22T14:22:31;19.20;99.90
27797;DHT22;15177;50.844;4.412;2023-06-22T14:24:57;19.20;99.90
27797;DHT22;15177;50.844;4.412;2023-06-22T14:27:25;19.20;99.90
27797;DHT22;15177;50.844;4.412;2023-06-22T14:29:51;19.10;99.90
27797;DHT22;15177;50.844;4.412;2023-06-22T14:32:18;19.10;99.90
27797;DHT22;15177;50.844;4.412;2023-06-22T14:34:44;19.10;99.90
27797;DHT22;15177;50.844;4.412;2023-06-22T14:37:09;19.10;99.90
27797;DHT22;15177;50.844;4.412;2023-06-22T14:39:35;19.20;99.90
27797;DHT22;15177;50.844;4.412;2023-06-22T14:42:02;19.20;99.90
27797;DHT22;15177;50.844;4.412;2023-06-22T14:44:30;19.20;99.90
27797;DHT22;15177;50.844;4.412;2023-06-22T14:46:56;19.10;99.90
27797;DHT22;15177;50.844;4.412;2023-06-22T14:49:22;19.00;99.90
27797;DHT22;15177;50.844;4.412;2023-06-22T14:51:48;18.90;99.90
27797;DHT22;15177;50.844;4.412;2023-06-22T14:54:14;18.80;99.90
27797;DHT22;15177;50.844;4.412;2023-06-22T14:56:40;18.80;99.90
27797;DHT22;15177;50.844;4.412;2023-06-22T14:59:06;18.80;99.90
27797;DHT22;15177;50.844;4.412;2023-06-22T15:01:32;18.90;99.90
27797;DHT22;15177;50.844;4.412;2023-06-22T15:03:57;19.00;99.90
27797;DHT22;15177;50.844;4.412;2023-06-22T15:06:23;19.00;99.90
27797;DHT22;15177;50.844;4.412;2023-06-22T15:08:49;19.10;99.90
27797;DHT22;15177;50.844;4.412;2023-06-22T15:11:14;19.10;99.90
27797;DHT22;15177;50.844;4.412;2023-06-22T15:13:41;19.20;99.90
27797;DHT22;15177;50.844;4.412;2023-06-22T15:16:07;19.20;99.90
27797;DHT22;15177;50.844;4.412;2023-06-22T15:18:33;19.20;99.90
27797;DHT22;15177;50.844;4.412;2023-06-22T15:21:00;19.30;99.90
27797;DHT22;15177;50.844;4.412;2023-06-22T15:23:30;19.30;99.90
27797;DHT22;15177;50.844;4.412;2023-06-22T15:25:56;19.30;99.90
27797;DHT22;15177;50.844;4.412;2023-06-22T15:28:30;19.40;99.90
27797;DHT22;15177;50.844;4.412;2023-06-22T15:30:58;19.40;99.90
27797;DHT22;15177;50.844;4.412;2023-06-22T15:33:25;19.40;99.90